Time;durP1;ratioP1;P1;durP2;ratioP2;P2;SDS_P1;SDS_P2;PMS_P1;PMS_P2;Temp;Humidity;BMP_temperature;BMP_pressure;BME280_temperature;BME280_humidity;BME280_pressure;Samples;Min_cycle;Max_cycle;Signal;HPM_P1;HPM_P2
2022/03/09 00:01:22;;;;;;;10.57;9.07;;;;;;;5.23;38.37;100844.56;10359594;28;20145;-63
2022/03/09 00:06:24;;;;;;;10.82;9.05;;;;;;;5.16;38.78;100869.56;10361402;28;20045;-63
2022/03/09 00:11:26;;;;;;;9.50;8.50;;;;;;;5.19;39.25;100850.09;10360816;28;20069;-63
2022/03/09 00:16:27;;;;;;;9.38;8.38;;;;;;;5.26;38.66;100864.69;10362032;28;20052;-63
2022/03/09 00:21:28;;;;;;;9.32;8.25;;;;;;;5.19;39.01;100871.19;10361438;28;20068;-65
2022/03/09 00:26:30;;;;;;;10.23;8.38;;;;;;;5.18;38.73;100873.00;10365485;28;20057;-64
2022/03/09 00:31:31;;;;;;;9.13;8.27;;;;;;;5.11;39.08;100864.50;10356890;28;20057;-64
2022/03/09 00:36:33;;;;;;;8.43;7.63;;;;;;;5.09;39.19;100884.84;10354591;28;20192;-64
2022/03/09 00:41:34;;;;;;;9.18;8.18;;;;;;;5.03;39.54;100890.41;10359283;28;20136;-65
2022/03/09 00:46:36;;;;;;;9.75;8.75;;;;;;;4.86;39.43;100896.47;10356421;28;20065;-63
2022/03/09 00:51:37;;;;;;;8.95;7.85;;;;;;;4.78;39.57;100877.50;10355648;28;20053;-63
2022/03/09 00:56:39;;;;;;;9.95;8.35;;;;;;;4.71;39.91;100889.25;10357460;28;20049;-63
2022/03/09 01:01:40;;;;;;;9.25;8.30;;;;;;;4.57;40.35;100888.09;10357032;28;20101;-63
2022/03/09 01:06:42;;;;;;;8.40;7.57;;;;;;;4.71;39.97;100894.53;10360125;28;20140;-64
2022/03/09 01:11:43;;;;;;;9.00;7.38;;;;;;;4.55;40.08;100889.97;10353713;28;20058;-64
2022/03/09 01:16:44;;;;;;;9.23;7.90;;;;;;;4.49;40.59;100892.88;10354236;28;20143;-64
2022/03/09 01:21:46;;;;;;;8.48;7.38;;;;;;;4.45;40.40;100883.38;10360133;28;20041;-63
2022/03/09 01:26:48;;;;;;;9.68;7.90;;;;;;;4.40;40.49;100880.13;10359680;28;20164;-63
2022/03/09 01:31:49;;;;;;;10.10;7.45;;;;;;;4.36;40.88;100886.44;10359282;28;20053;-64
2022/03/09 01:36:50;;;;;;;9.45;8.13;;;;;;;4.11;41.71;100874.31;10362710;28;20053;-63
2022/03/09 01:41:52;;;;;;;9.73;7.75;;;;;;;4.09;41.56;100880.63;10353445;28;20120;-63
2022/03/09 01:46:54;;;;;;;8.13;7.30;;;;;;;4.28;41.03;100891.19;10354549;28;20049;-63
2022/03/09 01:51:58;;;;;;;8.15;7.28;;;;;;;4.18;41.04;100882.84;10351256;28;20049;-62
2022/03/09 01:57:00;;;;;;;8.07;6.63;;;;;;;4.07;40.84;100862.25;10356333;28;20490;-62
2022/03/09 02:02:01;;;;;;;8.00;6.43;;;;;;;4.14;41.67;100871.56;10363527;28;20045;-64
2022/03/09 02:07:07;;;;;;;8.35;6.78;;;;;;;4.04;41.74;100846.56;10353974;28;20044;-63
2022/03/09 02:12:17;;;;;;;12.07;7.57;;;;;;;4.06;41.86;100857.88;10351225;28;20601;-65
2022/03/09 02:17:21;;;;;;;7.88;7.07;;;;;;;4.12;41.41;100869.94;10357063;28;20045;-62
2022/03/09 02:22:37;;;;;;;9.23;8.00;;;;;;;3.79;41.96;100849.41;10354361;28;20050;-62
2022/03/09 02:27:40;;;;;;;8.68;6.95;;;;;;;3.96;42.32;100864.47;10361389;28;20133;-62
2022/03/09 02:32:44;;;;;;;7.00;6.30;;;;;;;3.97;42.22;100858.28;10352166;28;20052;-63
2022/03/09 02:37:46;;;;;;;10.10;8.23;;;;;;;3.80;42.56;100862.50;10348997;28;20489;-63
2022/03/09 02:42:47;;;;;;;7.72;6.93;;;;;;;3.51;43.03;100853.19;10353980;28;20141;-63
2022/03/09 02:47:49;;;;;;;8.23;7.40;;;;;;;3.29;43.39;100842.69;10350693;28;20052;-62
2022/03/09 02:52:50;;;;;;;10.07;7.45;;;;;;;3.35;43.58;100845.06;10352443;28;20059;-61
2022/03/09 02:57:52;;;;;;;8.60;7.70;;;;;;;3.28;44.10;100833.06;10349908;28;20057;-62
2022/03/09 03:02:53;;;;;;;8.00;7.22;;;;;;;3.25;43.80;100830.56;10352501;28;20140;-64
2022/03/09 03:07:54;;;;;;;8.68;6.78;;;;;;;3.37;44.11;100859.00;10351602;28;20087;-61
2022/03/09 03:12:56;;;;;;;8.40;7.13;;;;;;;3.10;44.00;100824.16;10351757;28;20420;-62
2022/03/09 03:17:57;;;;;;;10.07;7.50;;;;;;;3.10;44.50;100838.16;10349361;28;20045;-61
2022/03/09 03:22:58;;;;;;;9.35;7.18;;;;;;;3.13;44.44;100843.28;10349567;28;20052;-60
2022/03/09 03:28:00;;;;;;;8.13;6.63;;;;;;;3.00;44.74;100837.69;10356759;28;20052;-61
2022/03/09 03:33:01;;;;;;;6.97;6.35;;;;;;;2.94;44.93;100852.84;10353153;28;20079;-62
2022/03/09 03:38:03;;;;;;;9.35;7.47;;;;;;;3.07;44.67;100855.84;10358201;28;20049;-61
2022/03/09 03:43:05;;;;;;;7.82;7.03;;;;;;;2.90;44.82;100830.19;10354605;28;20058;-59
2022/03/09 03:48:07;;;;;;;8.98;6.55;;;;;;;2.97;45.40;100852.72;10354974;28;20073;-60
2022/03/09 03:53:09;;;;;;;8.52;6.85;;;;;;;3.02;45.28;100856.03;10349875;28;20060;-59
2022/03/09 03:58:11;;;;;;;7.50;6.72;;;;;;;2.90;45.30;100856.50;10349903;28;20423;-61
2022/03/09 04:03:12;;;;;;;8.65;7.78;;;;;;;2.78;45.55;100845.53;10352430;28;20054;-58
2022/03/09 04:08:14;;;;;;;6.40;5.80;;;;;;;2.92;45.41;100875.72;10350806;28;20056;-61
2022/03/09 04:13:15;;;;;;;7.65;6.85;;;;;;;2.81;45.38;100826.19;10360308;28;20132;-62
2022/03/09 04:18:17;;;;;;;7.95;6.15;;;;;;;2.99;44.87;100866.69;10361091;28;20148;-63
2022/03/09 04:23:18;;;;;;;8.13;7.00;;;;;;;3.04;44.97;100872.59;10357945;28;20060;-61
2022/03/09 04:28:19;;;;;;;8.10;6.78;;;;;;;2.90;45.30;100869.63;10358035;28;20062;-62
2022/03/09 04:33:21;;;;;;;9.60;6.88;;;;;;;2.85;45.23;100858.44;10354399;28;20050;-61
2022/03/09 04:38:22;;;;;;;8.00;6.93;;;;;;;2.90;45.92;100877.53;10357891;28;20050;-61
2022/03/09 04:43:23;;;;;;;10.27;6.82;;;;;;;2.77;45.86;100880.63;10352050;28;20053;-60
2022/03/09 04:48:25;;;;;;;8.48;6.20;;;;;;;2.82;45.40;100865.56;10356066;28;20049;-60
2022/03/09 04:53:26;;;;;;;8.60;7.68;;;;;;;2.81;45.63;100879.59;10358747;28;20056;-59
2022/03/09 04:58:28;;;;;;;8.60;7.70;;;;;;;2.70;46.13;100886.19;10351591;28;20053;-61
2022/03/09 05:03:30;;;;;;;8.13;7.20;;;;;;;2.65;45.48;100899.50;10354713;28;20046;-60
2022/03/09 05:08:33;;;;;;;10.70;7.93;;;;;;;2.39;46.33;100876.81;10357476;28;20514;-62
2022/03/09 05:13:35;;;;;;;10.02;7.38;;;;;;;2.53;46.00;100892.06;10355723;28;20051;-62
2022/03/09 05:18:40;;;;;;;10.25;8.25;;;;;;;2.40;46.90;100900.41;10352566;28;20124;-61
2022/03/09 05:23:41;;;;;;;9.77;8.30;;;;;;;2.27;46.51;100880.75;10355359;28;20132;-67
2022/03/09 05:28:43;;;;;;;8.73;7.75;;;;;;;2.37;46.77;100897.91;10358061;28;20265;-62
2022/03/09 05:33:44;;;;;;;8.73;7.50;;;;;;;2.24;47.11;100886.13;10354732;28;20514;-64
2022/03/09 05:38:46;;;;;;;8.38;7.57;;;;;;;2.25;47.18;100879.94;10359339;28;20045;-63
2022/03/09 05:43:49;;;;;;;8.20;7.40;;;;;;;2.45;46.95;100889.72;10355235;28;20056;-62
2022/03/09 05:48:51;;;;;;;10.40;7.93;;;;;;;2.43;46.68;100895.06;10360128;28;20160;-62
2022/03/09 05:53:52;;;;;;;9.40;7.57;;;;;;;2.31;47.35;100908.59;10359910;28;20050;-62
2022/03/09 05:58:54;;;;;;;8.13;7.32;;;;;;;2.36;47.12;100925.09;10342607;28;20808;-62
2022/03/09 06:03:55;;;;;;;9.13;8.15;;;;;;;2.40;46.93;100923.19;10342600;28;20053;-62
2022/03/09 06:08:57;;;;;;;9.38;7.45;;;;;;;2.32;46.84;100926.09;10344936;28;20041;-63
2022/03/09 06:13:58;;;;;;;9.35;8.45;;;;;;;2.45;47.05;100930.00;10340565;28;20197;-62
2022/03/09 06:19:00;;;;;;;8.80;7.90;;;;;;;2.54;47.52;100941.97;10345050;28;20041;-60
2022/03/09 06:24:02;;;;;;;9.55;7.28;;;;;;;2.56;46.31;100934.88;10340946;28;20053;-61
2022/03/09 06:29:05;;;;;;;9.73;7.75;;;;;;;2.62;46.80;100934.63;10344497;28;21658;-62
2022/03/09 06:34:06;;;;;;;11.20;7.70;;;;;;;2.89;46.57;100938.94;10339172;28;20156;-62
2022/03/09 06:39:07;;;;;;;11.77;8.20;;;;;;;3.14;45.44;100942.34;10340458;28;20089;-63
2022/03/09 06:44:13;;;;;;;9.38;8.00;;;;;;;3.27;45.06;100950.66;10342571;28;20049;-63
2022/03/09 06:49:14;;;;;;;10.27;7.57;;;;;;;3.43;44.32;100945.63;10342525;28;20044;-65
2022/03/09 06:54:16;;;;;;;10.27;8.15;;;;;;;3.76;44.22;100953.06;10344835;28;20053;-62
2022/03/09 06:59:17;;;;;;;10.20;9.02;;;;;;;3.77;43.86;100939.00;10340811;28;20053;-63
2022/03/09 07:04:19;;;;;;;9.20;7.75;;;;;;;4.08;43.47;100969.31;10342907;28;20057;-62
2022/03/09 07:09:20;;;;;;;12.93;9.15;;;;;;;4.34;42.48;100970.88;10338557;28;20049;-64
2022/03/09 07:14:22;;;;;;;9.05;8.15;;;;;;;4.46;41.85;100974.75;10341183;28;20049;-66
2022/03/09 07:19:26;;;;;;;10.07;9.07;;;;;;;4.59;41.53;100985.59;10341000;28;20142;-64
2022/03/09 07:24:27;;;;;;;9.80;8.30;;;;;;;4.74;41.41;100984.06;10341773;28;20054;-66
2022/03/09 07:29:29;;;;;;;11.00;8.30;;;;;;;4.78;41.24;100985.66;10336796;28;20135;-61
2022/03/09 07:34:30;;;;;;;10.95;8.10;;;;;;;5.02;40.59;100988.97;10339732;28;20049;-62
2022/03/09 07:39:32;;;;;;;12.70;8.70;;;;;;;5.27;40.28;100993.97;10335338;28;20104;-60
2022/03/09 07:44:33;;;;;;;14.68;8.90;;;;;;;5.34;39.81;100976.06;10345013;28;20069;-65
2022/03/09 07:49:37;;;;;;;13.20;9.13;;;;;;;5.62;39.36;100998.53;10345313;28;20393;-64
2022/03/09 07:54:39;;;;;;;14.65;8.77;;;;;;;5.70;39.47;100995.50;10346597;28;20057;-61
2022/03/09 07:59:40;;;;;;;13.50;8.98;;;;;;;5.97;38.69;101015.31;10344857;28;20080;-62
2022/03/09 08:04:42;;;;;;;12.98;8.90;;;;;;;6.26;37.96;101013.03;10346646;28;20122;-62
2022/03/09 08:09:43;;;;;;;14.93;8.50;;;;;;;6.45;37.58;101014.75;10341191;28;20124;-60
2022/03/09 08:14:44;;;;;;;11.10;8.82;;;;;;;6.34;37.64;101005.56;10344053;28;20053;-60
2022/03/09 08:19:46;;;;;;;10.82;9.05;;;;;;;6.55;36.95;100974.50;10350356;28;20050;-65
2022/03/09 08:24:48;;;;;;;12.95;8.10;;;;;;;6.91;36.84;101001.75;10342099;28;20432;-60
2022/03/09 08:29:50;;;;;;;12.05;9.30;;;;;;;7.31;36.03;100994.31;10342085;28;20304;-59
2022/03/09 08:34:54;;;;;;;12.30;8.68;;;;;;;7.13;36.20;100987.34;10342047;28;20176;-60
2022/03/09 08:39:55;;;;;;;10.73;8.63;;;;;;;7.67;35.31;100990.56;10340338;28;20060;-65
2022/03/09 08:44:57;;;;;;;11.88;9.32;;;;;;;8.07;34.46;101003.31;10334043;28;20054;-61
2022/03/09 08:49:58;;;;;;;9.45;8.48;;;;;;;8.30;33.99;100999.31;10344035;28;20144;-61
2022/03/09 08:55:20;;;;;;;11.77;9.10;;;;;;;8.56;33.40;100996.94;10339616;28;20062;-62
2022/03/09 09:00:22;;;;;;;14.23;9.70;;;;;;;8.76;33.57;100988.59;10343536;28;20057;-63
2022/03/09 09:05:23;;;;;;;12.02;8.90;;;;;;;9.28;32.67;100987.19;10340876;28;20057;-61
2022/03/09 09:10:26;;;;;;;11.05;8.80;;;;;;;9.66;31.43;100983.00;10338239;28;21022;-61
2022/03/09 09:15:29;;;;;;;12.65;9.23;;;;;;;9.77;31.52;100959.22;10339106;28;20124;-61
2022/03/09 09:20:31;;;;;;;14.32;8.93;;;;;;;10.26;30.64;100958.59;10345196;28;20100;-60
2022/03/09 09:25:32;;;;;;;10.70;9.57;;;;;;;10.86;30.15;100988.25;10341851;28;20068;-60
2022/03/09 09:30:34;;;;;;;10.60;8.80;;;;;;;10.92;29.57;100977.16;10343586;28;20072;-61
2022/03/09 09:35:36;;;;;;;14.07;10.07;;;;;;;10.79;29.34;100957.69;10342670;28;20448;-61
2022/03/09 09:40:45;;;;;;;12.27;8.93;;;;;;;11.66;28.49;100976.34;10337941;28;21366;-61
2022/03/09 09:45:46;;;;;;;12.95;9.77;;;;;;;12.23;27.62;100958.78;10336977;28;20164;-63
2022/03/09 09:50:48;;;;;;;12.30;8.85;;;;;;;12.12;27.60;100972.13;10337182;28;20058;-61
2022/03/09 09:55:49;;;;;;;11.95;8.73;;;;;;;12.62;27.02;100977.22;10341546;28;20092;-60
2022/03/09 10:00:51;;;;;;;12.52;9.95;;;;;;;13.53;26.07;100964.69;10339370;28;20059;-60
2022/03/09 10:05:52;;;;;;;10.82;8.55;;;;;;;14.24;25.11;100967.69;10339090;28;20049;-60
2022/03/09 10:11:00;;;;;;;13.98;9.63;;;;;;;15.30;23.56;100968.41;10342279;28;20143;-60
2022/03/09 10:16:12;;;;;;;10.63;8.95;;;;;;;17.43;21.15;100963.84;10336278;28;20060;-60
2022/03/09 10:21:23;;;;;;;10.52;8.20;;;;;;;21.07;17.42;100963.28;10337380;28;20523;-62
2022/03/09 10:26:44;;;;;;;9.40;8.07;;;;;;;22.80;15.88;100964.75;10342188;28;20050;-60
2022/03/09 10:31:48;;;;;;;12.07;9.55;;;;;;;21.90;16.31;100966.41;10341691;28;20056;-61
2022/03/09 10:37:00;;;;;;;10.20;8.38;;;;;;;20.49;17.96;100965.25;10340457;28;20230;-62
2022/03/09 10:42:03;;;;;;;9.45;8.32;;;;;;;20.24;17.61;100962.59;10343872;28;20060;-63
2022/03/09 10:47:04;;;;;;;9.33;8.20;;;;;;;21.33;16.36;100981.09;10338613;28;20551;-64
2022/03/09 10:52:07;;;;;;;9.52;8.32;;;;;;;24.66;14.01;100972.44;10337508;28;20049;-62
2022/03/09 10:57:10;;;;;;;8.50;7.70;;;;;;;27.84;11.34;100965.63;10334425;28;20160;-59
2022/03/09 11:02:14;;;;;;;8.65;7.25;;;;;;;29.61;10.32;100963.44;10337244;28;20061;-62
2022/03/09 11:07:16;;;;;;;8.40;7.60;;;;;;;30.65;9.63;100962.19;10333949;28;20050;-62
2022/03/09 11:12:21;;;;;;;8.60;7.78;;;;;;;31.53;8.83;100947.53;10332170;28;20139;-62
2022/03/09 11:17:33;;;;;;;7.03;6.43;;;;;;;31.78;8.28;100936.16;10332540;28;20072;-62
2022/03/09 11:22:35;;;;;;;6.95;6.35;;;;;;;32.59;7.90;100918.44;10328858;28;20045;-62
2022/03/09 11:27:43;;;;;;;7.32;6.60;;;;;;;33.15;7.70;100920.25;10332737;28;20219;-61
2022/03/09 11:32:45;;;;;;;7.45;6.53;;;;;;;33.03;7.79;100915.72;10327334;28;20071;-62
2022/03/09 11:37:46;;;;;;;7.18;6.50;;;;;;;34.27;7.14;100905.88;10326910;28;20204;-62
2022/03/09 11:42:48;;;;;;;8.00;6.88;;;;;;;34.30;6.74;100902.59;10333679;28;20785;-61
2022/03/09 11:48:02;;;;;;;6.45;5.95;;;;;;;34.95;6.44;100886.63;10331992;28;20049;-62
2022/03/09 11:53:06;;;;;;;6.60;6.00;;;;;;;35.75;6.50;100894.50;10331031;28;20160;-61
2022/03/09 11:58:10;;;;;;;6.25;5.80;;;;;;;36.23;5.55;100883.09;10335679;28;20068;-61
2022/03/09 12:03:41;;;;;;;6.25;5.75;;;;;;;36.11;5.87;100882.59;10330747;28;20200;-62
2022/03/09 12:08:47;;;;;;;8.65;6.25;;;;;;;37.36;5.29;100881.00;10327677;28;20050;-62
2022/03/09 12:13:48;;;;;;;5.78;5.38;;;;;;;37.18;5.24;100880.53;10327830;28;20053;-61
2022/03/09 12:19:00;;;;;;;8.27;5.90;;;;;;;37.05;5.21;100872.84;10331070;28;20639;-60
2022/03/09 12:24:02;;;;;;;6.78;6.18;;;;;;;37.09;5.51;100876.72;10332396;28;20049;-62
2022/03/09 12:29:03;;;;;;;6.53;5.90;;;;;;;37.83;4.74;100857.28;10333336;28;20053;-63
2022/03/09 12:34:04;;;;;;;6.18;5.63;;;;;;;38.15;4.77;100859.47;10337480;28;20100;-62
2022/03/09 12:39:07;;;;;;;6.30;5.65;;;;;;;37.45;5.11;100854.28;10339001;28;20182;-60
2022/03/09 12:44:16;;;;;;;6.65;5.47;;;;;;;38.43;4.34;100853.34;10338714;28;20059;-63
2022/03/09 12:49:28;;;;;;;6.53;5.93;;;;;;;37.68;4.68;100850.75;10337547;28;20147;-62
2022/03/09 12:54:44;;;;;;;6.50;5.95;;;;;;;38.58;4.69;100844.81;10336297;28;20149;-63
2022/03/09 13:00:13;;;;;;;5.70;5.30;;;;;;;38.60;4.19;100837.00;10335517;28;20590;-63
2022/03/09 13:05:19;;;;;;;6.65;6.03;;;;;;;38.59;4.30;100840.91;10334134;28;20100;-63
2022/03/09 13:10:22;;;;;;;6.15;5.65;;;;;;;39.19;4.46;100820.88;10335984;28;20052;-67
2022/03/09 13:15:43;;;;;;;6.97;6.47;;;;;;;38.57;4.04;100820.91;10334257;28;20137;-63
2022/03/09 13:20:46;;;;;;;7.28;6.68;;;;;;;38.43;4.31;100817.19;10334172;28;20769;-62
2022/03/09 13:25:47;;;;;;;8.20;7.40;;;;;;;39.32;3.92;100805.38;10333276;28;20050;-62
2022/03/09 13:30:52;;;;;;;7.22;6.72;;;;;;;40.00;3.76;100797.50;10330292;28;20061;-62
2022/03/09 13:35:54;;;;;;;7.20;6.60;;;;;;;40.26;3.83;100792.22;10332928;28;20067;-62
2022/03/09 13:41:04;;;;;;;7.18;6.50;;;;;;;39.26;4.03;100778.75;10332997;28;20252;-62
2022/03/09 13:46:16;;;;;;;7.63;7.03;;;;;;;38.98;3.81;100784.19;10334056;28;20128;-62
2022/03/09 13:51:34;;;;;;;8.27;7.53;;;;;;;39.27;4.14;100774.00;10334978;28;20056;-62
2022/03/09 13:56:36;;;;;;;7.00;6.40;;;;;;;39.65;3.98;100783.09;10335486;28;20052;-62
2022/03/09 14:01:38;;;;;;;8.75;7.82;;;;;;;38.53;4.49;100775.38;10333397;28;20075;-64
2022/03/09 14:06:40;;;;;;;8.10;7.35;;;;;;;37.67;4.85;100765.78;10338374;28;20476;-62
2022/03/09 14:11:43;;;;;;;7.90;7.30;;;;;;;37.49;4.74;100753.47;10340557;28;20063;-62
2022/03/09 14:16:50;;;;;;;9.95;7.63;;;;;;;38.11;4.81;100763.09;10332339;28;20053;-63
2022/03/09 14:21:52;;;;;;;8.93;8.13;;;;;;;37.59;4.74;100757.25;10338185;28;20164;-62
2022/03/09 14:26:54;;;;;;;8.20;7.60;;;;;;;37.47;5.09;100750.16;10336279;28;20842;-62
2022/03/09 14:31:55;;;;;;;8.30;7.70;;;;;;;35.63;5.35;100735.34;10337172;28;20057;-62
2022/03/09 14:36:59;;;;;;;8.57;7.78;;;;;;;34.23;5.92;100750.00;10332851;28;20519;-62
2022/03/09 14:42:00;;;;;;;10.25;9.35;;;;;;;29.26;8.56;100750.31;10333723;28;20059;-62
2022/03/09 14:47:02;;;;;;;9.35;8.57;;;;;;;26.59;10.28;100739.31;10334233;28;20063;-62
2022/03/09 14:52:05;;;;;;;9.77;8.82;;;;;;;24.88;11.70;100752.69;10333008;28;20054;-59
2022/03/09 14:57:07;;;;;;;11.05;10.15;;;;;;;23.96;12.34;100747.47;10334415;28;20054;-60
2022/03/09 15:02:09;;;;;;;10.90;9.75;;;;;;;22.43;13.42;100735.97;10333259;28;20057;-60
2022/03/09 15:07:10;;;;;;;11.52;10.50;;;;;;;21.40;14.05;100738.38;10335233;28;20151;-60
2022/03/09 15:12:12;;;;;;;11.90;10.80;;;;;;;20.80;14.87;100738.16;10332795;28;20132;-60
2022/03/09 15:17:13;;;;;;;10.52;9.60;;;;;;;19.91;15.33;100740.22;10330893;28;20045;-61
2022/03/09 15:22:15;;;;;;;11.45;10.43;;;;;;;19.26;15.84;100736.56;10333070;28;20517;-61
2022/03/09 15:27:16;;;;;;;12.20;10.85;;;;;;;18.59;16.70;100734.75;10332936;28;20053;-60
2022/03/09 15:32:18;;;;;;;11.80;10.68;;;;;;;18.31;17.15;100724.19;10334871;28;20057;-60
2022/03/09 15:37:20;;;;;;;13.00;11.35;;;;;;;17.97;17.19;100725.09;10335417;28;20429;-60
2022/03/09 15:42:22;;;;;;;11.52;10.35;;;;;;;17.71;17.84;100751.13;10329687;28;20068;-61
2022/03/09 15:47:24;;;;;;;12.77;11.45;;;;;;;17.37;17.84;100738.44;10331397;28;20054;-60
2022/03/09 15:52:25;;;;;;;12.15;10.65;;;;;;;17.16;18.80;100747.69;10332195;28;20124;-61
2022/03/09 15:57:26;;;;;;;10.98;9.98;;;;;;;17.02;18.69;100746.38;10332131;28;20050;-60
2022/03/09 16:02:28;;;;;;;12.13;10.93;;;;;;;16.44;19.25;100761.88;10331326;28;20049;-61
2022/03/09 16:07:29;;;;;;;12.88;10.88;;;;;;;16.27;19.16;100751.91;10343553;28;20080;-62
2022/03/09 16:12:31;;;;;;;11.52;10.38;;;;;;;16.25;19.54;100760.09;10343529;28;20080;-60
2022/03/09 16:17:34;;;;;;;13.27;10.95;;;;;;;16.08;20.03;100761.75;10343198;28;20825;-61
2022/03/09 16:22:37;;;;;;;13.52;11.25;;;;;;;15.78;20.52;100760.16;10343951;28;20687;-61
2022/03/09 16:27:40;;;;;;;12.07;10.50;;;;;;;15.55;21.10;100756.91;10345964;28;20092;-61
2022/03/09 16:32:42;;;;;;;12.80;11.45;;;;;;;15.45;20.75;100761.44;10350153;28;20112;-60
2022/03/09 16:37:43;;;;;;;11.98;10.77;;;;;;;15.14;21.41;100769.63;10350704;28;20446;-61
2022/03/09 16:42:48;;;;;;;12.82;11.52;;;;;;;14.93;20.89;100777.81;10343409;28;20168;-62
2022/03/09 16:47:51;;;;;;;11.52;10.23;;;;;;;14.88;21.54;100774.69;10340945;28;20857;-62
2022/03/09 16:52:52;;;;;;;11.68;10.52;;;;;;;14.72;21.70;100786.78;10337734;28;20502;-62
2022/03/09 16:57:55;;;;;;;12.30;11.05;;;;;;;14.46;22.17;100773.03;10342891;28;20064;-58
2022/03/09 17:02:57;;;;;;;12.95;11.57;;;;;;;14.50;22.17;100788.69;10341583;28;20072;-61
2022/03/09 17:08:00;;;;;;;12.45;10.45;;;;;;;14.40;22.83;100786.97;10339733;28;20080;-61
2022/03/09 17:13:03;;;;;;;12.90;11.63;;;;;;;14.33;22.62;100786.63;10343633;28;20050;-62
2022/03/09 17:18:04;;;;;;;12.68;11.10;;;;;;;14.08;23.51;100772.72;10341276;28;20062;-60
2022/03/09 17:23:07;;;;;;;14.18;12.68;;;;;;;14.12;23.24;100800.91;10342696;28;20317;-61
2022/03/09 17:28:09;;;;;;;15.05;12.20;;;;;;;14.13;23.38;100807.13;10340818;28;20045;-62
2022/03/09 17:33:10;;;;;;;13.27;10.90;;;;;;;13.99;23.79;100811.00;10341749;28;20049;-62
2022/03/09 17:38:12;;;;;;;13.40;11.88;;;;;;;13.76;24.01;100810.28;10345165;28;20482;-61
2022/03/09 17:43:23;;;;;;;14.75;11.82;;;;;;;13.57;24.50;100806.50;10345133;28;20057;-63
2022/03/09 17:48:24;;;;;;;13.13;11.77;;;;;;;13.36;24.73;100798.47;10341434;28;20062;-62
2022/03/09 17:53:25;;;;;;;14.65;13.07;;;;;;;13.41;24.98;100827.50;10342663;28;21013;-65
2022/03/09 17:58:27;;;;;;;15.73;14.02;;;;;;;13.37;25.22;100842.06;10341803;28;20057;-64
2022/03/09 18:03:28;;;;;;;17.35;14.98;;;;;;;13.14;25.46;100825.25;10338364;28;20055;-63
2022/03/09 18:08:30;;;;;;;16.15;14.45;;;;;;;13.04;26.13;100846.53;10336536;28;20224;-64
2022/03/09 18:13:31;;;;;;;20.08;15.85;;;;;;;12.89;26.96;100856.63;10339806;28;20273;-64
2022/03/09 18:18:33;;;;;;;27.52;18.73;;;;;;;12.72;27.30;100848.16;10337812;28;20191;-62
2022/03/09 18:23:34;;;;;;;19.20;17.10;;;;;;;12.65;27.51;100860.28;10340362;28;20053;-60
2022/03/09 18:28:36;;;;;;;22.23;17.55;;;;;;;12.55;27.82;100868.19;10338852;28;21266;-62
2022/03/09 18:33:39;;;;;;;17.73;14.80;;;;;;;12.40;28.20;100844.50;10344421;28;20063;-61
2022/03/09 18:38:41;;;;;;;19.35;15.60;;;;;;;12.41;28.76;100860.41;10340559;28;20049;-62
2022/03/09 18:43:42;;;;;;;18.30;15.90;;;;;;;12.26;29.11;100866.97;10336650;28;20049;-62
2022/03/09 18:48:44;;;;;;;19.08;17.08;;;;;;;12.17;28.96;100874.72;10335991;28;20053;-63
2022/03/09 18:53:45;;;;;;;22.52;18.13;;;;;;;12.02;29.60;100882.09;10337137;28;20500;-63
2022/03/09 18:58:47;;;;;;;19.33;17.20;;;;;;;11.93;29.49;100872.09;10335832;28;20111;-61
2022/03/09 19:03:49;;;;;;;19.08;16.63;;;;;;;11.61;30.18;100859.38;10333846;28;20524;-61
2022/03/09 19:08:50;;;;;;;21.42;15.15;;;;;;;11.72;29.11;100874.56;10338325;28;20041;-61
2022/03/09 19:13:51;;;;;;;18.83;15.73;;;;;;;11.71;29.08;100880.00;10339189;28;20497;-62
2022/03/09 19:18:53;;;;;;;19.17;16.45;;;;;;;11.63;28.67;100880.59;10339314;28;20049;-62
2022/03/09 19:23:55;;;;;;;18.60;16.33;;;;;;;11.54;29.05;100884.78;10340086;28;20065;-62
2022/03/09 19:28:56;;;;;;;18.42;16.52;;;;;;;11.42;29.36;100893.69;10343037;28;20081;-62
2022/03/09 19:33:58;;;;;;;19.92;17.15;;;;;;;11.29;29.70;100889.28;10339743;28;20057;-60
2022/03/09 19:38:59;;;;;;;19.48;15.77;;;;;;;11.16;29.70;100880.47;10345850;28;20132;-59
2022/03/09 19:44:01;;;;;;;22.08;18.08;;;;;;;10.98;30.51;100881.81;10344370;28;20608;-64
2022/03/09 19:49:02;;;;;;;19.42;16.67;;;;;;;10.90;30.38;100893.88;10344257;28;20049;-63
2022/03/09 19:54:03;;;;;;;19.77;17.13;;;;;;;10.83;30.99;100895.25;10345746;28;20041;-64
2022/03/09 19:59:05;;;;;;;18.73;15.35;;;;;;;10.77;30.63;100901.88;10344620;28;20049;-62
2022/03/09 20:04:06;;;;;;;20.58;16.35;;;;;;;10.73;30.59;100903.06;10346209;28;20554;-61
2022/03/09 20:09:08;;;;;;;18.38;16.35;;;;;;;10.54;30.77;100886.69;10344327;28;20140;-63
2022/03/09 20:14:09;;;;;;;16.65;14.80;;;;;;;10.53;30.49;100907.13;10351241;28;20108;-63
2022/03/09 20:19:12;;;;;;;18.77;15.23;;;;;;;10.44;30.23;100897.97;10353662;28;20077;-62
2022/03/09 20:24:14;;;;;;;15.93;13.52;;;;;;;10.35;29.39;100895.09;10348074;28;20180;-62
2022/03/09 20:29:15;;;;;;;14.27;12.77;;;;;;;10.38;29.30;100914.34;10348076;28;20057;-63
2022/03/09 20:34:20;;;;;;;18.35;14.63;;;;;;;10.24;29.43;100906.47;10345084;28;20529;-61
2022/03/09 20:39:24;;;;;;;14.80;13.07;;;;;;;10.43;29.98;100938.88;10348024;28;20042;-62
2022/03/09 20:44:27;;;;;;;17.83;15.63;;;;;;;10.37;29.92;100936.63;10349524;28;20056;-62
2022/03/09 20:49:28;;;;;;;18.98;16.80;;;;;;;10.22;30.36;100930.50;10346490;28;20824;-59
2022/03/09 20:54:30;;;;;;;26.27;18.83;;;;;;;10.18;30.28;100922.84;10343118;28;20099;-62
2022/03/09 20:59:31;;;;;;;20.35;18.02;;;;;;;10.07;30.31;100926.22;10345833;28;20645;-62
2022/03/09 21:04:33;;;;;;;18.60;16.67;;;;;;;9.95;30.37;100929.69;10346034;28;20167;-61
2022/03/09 21:09:34;;;;;;;14.60;13.00;;;;;;;9.87;30.09;100939.03;10347336;28;20060;-62
2022/03/09 21:14:35;;;;;;;16.58;13.45;;;;;;;9.77;30.39;100945.91;10344776;28;20053;-60
2022/03/09 21:19:37;;;;;;;12.32;11.10;;;;;;;9.73;30.45;100947.09;10342844;28;20144;-61
2022/03/09 21:29:58;;;;;;;13.80;11.40;;;;;;;9.47;30.06;100938.16;10347644;28;20544;-62
2022/03/09 21:35:00;;;;;;;12.32;11.02;;;;;;;9.53;30.45;100951.91;10344531;28;21539;-64
2022/03/09 21:40:03;;;;;;;11.98;10.77;;;;;;;9.48;30.20;100956.66;10337112;28;20057;-61
2022/03/09 21:45:05;;;;;;;11.27;10.13;;;;;;;9.45;30.57;100956.03;10353876;28;20053;-61
2022/03/09 21:50:08;;;;;;;12.10;10.90;;;;;;;9.38;30.70;100961.72;10357995;28;20060;-60
2022/03/09 21:55:10;;;;;;;12.07;10.88;;;;;;;9.32;30.46;100951.50;10359874;28;20126;-62
2022/03/09 22:00:12;;;;;;;12.23;10.95;;;;;;;9.26;30.52;100957.19;10357704;28;20136;-62
2022/03/09 22:05:13;;;;;;;12.38;11.13;;;;;;;9.12;30.59;100938.63;10354767;28;20127;-62
2022/03/09 22:10:14;;;;;;;12.45;10.38;;;;;;;9.26;30.95;100966.97;10354193;28;20128;-62
2022/03/09 22:15:16;;;;;;;13.98;11.07;;;;;;;9.20;30.41;100971.72;10362635;28;20139;-62
2022/03/09 22:20:17;;;;;;;12.57;11.38;;;;;;;9.12;31.00;100960.72;10359520;28;20104;-62
2022/03/09 22:25:19;;;;;;;11.77;10.60;;;;;;;9.09;30.78;100960.06;10353043;28;20122;-60
2022/03/09 22:30:20;;;;;;;12.93;11.02;;;;;;;9.03;30.73;100956.00;10352289;28;20493;-60
2022/03/09 22:35:22;;;;;;;12.23;10.88;;;;;;;8.87;30.77;100936.66;10353315;28;20045;-60
2022/03/09 22:40:23;;;;;;;13.63;12.05;;;;;;;8.81;31.27;100952.03;10353189;28;20050;-60
2022/03/09 22:45:25;;;;;;;16.60;12.00;;;;;;;8.71;31.13;100950.88;10357309;28;20038;-62
2022/03/09 22:50:26;;;;;;;13.05;11.75;;;;;;;8.76;31.28;100962.06;10349369;28;20436;-62
2022/03/09 22:55:28;;;;;;;14.75;11.48;;;;;;;8.82;31.45;100976.78;10354416;28;20049;-62
2022/03/09 23:00:35;;;;;;;13.35;11.40;;;;;;;8.79;32.02;100969.84;10355343;28;20130;-61
2022/03/09 23:05:37;;;;;;;13.13;11.45;;;;;;;8.65;32.15;100983.13;10351485;28;20072;-61
2022/03/09 23:10:39;;;;;;;12.57;11.27;;;;;;;8.48;31.83;100966.41;10349577;28;20050;-63